Time;durP1;ratioP1;P1;durP2;ratioP2;P2;SDS_P1;SDS_P2;PMS_P1;PMS_P2;Temp;Humidity;BMP_temperature;BMP_pressure;BME280_temperature;BME280_humidity;BME280_pressure;Samples;Min_cycle;Max_cycle;Signal;HPM_P1;HPM_P2
2023/04/16 00:09:42;;;;;;;11.40;7.20;;;;;;;11.87;93.32;100336.05;669126;1264;139795;-88
2023/04/16 00:24:45;;;;;;;12.00;8.40;;;;;;;11.92;92.63;100342.06;674223;1260;139312;-87
2023/04/16 00:39:49;;;;;;;11.50;7.10;;;;;;;11.82;93.17;100350.41;670262;1263;139445;-86
2023/04/16 00:54:52;;;;;;;11.50;7.60;;;;;;;11.76;93.72;100352.88;669541;1261;138384;-86
2023/04/16 01:09:56;;;;;;;10.60;6.90;;;;;;;11.69;94.10;100357.98;669647;1260;138517;-83
2023/04/16 01:24:59;;;;;;;10.20;6.70;;;;;;;11.62;93.95;100354.67;671333;1260;138698;-86
2023/04/16 01:40:03;;;;;;;15.60;9.10;;;;;;;11.55;94.26;100350.73;672358;1263;138994;-85
2023/04/16 01:55:06;;;;;;;8.40;5.60;;;;;;;11.65;93.79;100356.13;675118;1263;138767;-86
2023/04/16 02:10:10;;;;;;;9.10;5.70;;;;;;;11.53;94.40;100350.19;672094;1276;139028;-85
2023/04/16 02:25:14;;;;;;;10.80;6.80;;;;;;;11.61;93.98;100349.52;670720;1260;138299;-86
2023/04/16 02:40:18;;;;;;;8.20;6.20;;;;;;;11.61;93.53;100359.12;674665;1263;139501;-86
2023/04/16 02:55:23;;;;;;;8.50;6.00;;;;;;;11.46;94.18;100366.38;670842;1263;138844;-85
2023/04/16 03:10:27;;;;;;;11.20;6.60;;;;;;;11.33;94.23;100379.48;671078;1260;138252;-86
2023/04/16 03:25:30;;;;;;;11.20;7.50;;;;;;;11.31;93.95;100392.48;670104;1263;139735;-85
2023/04/16 03:40:33;;;;;;;11.70;7.40;;;;;;;11.23;93.66;100399.47;674612;1263;139113;-86
2023/04/16 03:55:37;;;;;;;10.50;7.00;;;;;;;11.35;93.37;100410.64;674671;1263;139456;-86
2023/04/16 04:10:40;;;;;;;9.40;6.40;;;;;;;11.38;92.30;100422.78;672188;1263;138888;-87
2023/04/16 04:25:44;;;;;;;11.30;7.10;;;;;;;11.40;91.71;100436.48;673854;1259;138667;-86
2023/04/16 04:40:48;;;;;;;9.70;6.10;;;;;;;11.33;92.44;100442.38;672078;1263;139082;-84
2023/04/16 04:55:52;;;;;;;9.60;6.80;;;;;;;11.37;92.20;100450.20;672247;1263;139725;-84
2023/04/16 05:11:01;;;;;;;47.40;24.60;;;;;;;11.60;91.12;100457.64;672756;1263;138880;-85
2023/04/16 05:26:04;;;;;;;12.00;6.90;;;;;;;11.60;90.84;100466.77;670455;1263;139476;-85
2023/04/16 05:41:07;;;;;;;10.60;6.40;;;;;;;11.69;91.18;100480.29;674262;1278;139587;-84
2023/04/16 05:56:10;;;;;;;4.80;3.60;;;;;;;11.77;91.24;100486.05;672639;1263;139366;-85
2023/04/16 06:11:13;;;;;;;5.80;3.70;;;;;;;11.84;91.16;100491.09;669158;1263;138362;-85
2023/04/16 06:26:17;;;;;;;6.40;4.80;;;;;;;12.12;90.24;100508.71;674172;1256;139284;-86
2023/04/16 06:41:21;;;;;;;11.50;7.10;;;;;;;11.90;89.76;100522.27;672770;1266;138444;-86
2023/04/16 06:56:25;;;;;;;11.30;6.20;;;;;;;12.39;88.81;100528.35;671622;1263;139089;-85
2023/04/16 07:11:29;;;;;;;3.90;2.90;;;;;;;12.79;86.69;100534.16;672542;1261;138999;-86
2023/04/16 07:26:32;;;;;;;7.70;4.60;;;;;;;13.11;84.70;100542.08;672689;1262;138993;-87
2023/04/16 07:41:36;;;;;;;20.80;11.20;;;;;;;13.00;83.32;100549.80;672497;1262;138808;-86
2023/04/16 07:56:39;;;;;;;34.50;14.50;;;;;;;13.59;82.36;100554.77;673598;1261;139519;-87
2023/04/16 08:11:42;;;;;;;160.00;49.00;;;;;;;14.14;79.86;100559.60;671383;1262;139125;-88
2023/04/16 08:26:46;;;;;;;508.40;202.00;;;;;;;15.19;78.67;100568.61;675343;1263;139510;-90
2023/04/16 08:41:51;;;;;;;53.30;24.40;;;;;;;15.01;76.25;100587.29;675132;1264;139686;-86
2023/04/16 08:56:57;;;;;;;8.10;5.70;;;;;;;14.33;76.02;100593.77;673780;1263;140064;-90
2023/04/16 09:12:01;;;;;;;32.70;12.10;;;;;;;14.45;75.96;100601.21;675820;1276;139215;-90
2023/04/16 09:27:06;;;;;;;8.70;4.00;;;;;;;14.42;75.29;100616.36;674957;1279;141547;-87
2023/04/16 09:42:10;;;;;;;39.30;21.70;;;;;;;14.66;75.00;100631.73;671073;1260;139600;-89
2023/04/16 09:57:19;;;;;;;44.10;20.00;;;;;;;14.49;74.68;100652.10;672954;1261;139876;-91
2023/04/16 10:12:22;;;;;;;23.30;19.00;;;;;;;14.69;75.03;100660.15;673108;1261;138881;-90
2023/04/16 10:27:26;;;;;;;39.60;33.50;;;;;;;14.95;74.21;100664.09;675501;1267;139330;-86
2023/04/16 10:42:30;;;;;;;31.30;18.20;;;;;;;15.44;74.38;100665.70;676842;1261;139240;-87
2023/04/16 10:57:33;;;;;;;17.40;8.50;;;;;;;15.71;73.74;100681.27;673692;1263;140017;-91
2023/04/16 11:12:39;;;;;;;13.90;7.80;;;;;;;15.68;72.54;100680.46;671442;1263;139416;-93
2023/04/16 11:27:42;;;;;;;12.30;9.50;;;;;;;15.81;72.05;100692.79;674252;1271;139406;-82
2023/04/16 11:42:45;;;;;;;6.80;4.30;;;;;;;15.72;71.19;100712.17;674535;1263;139393;-87
2023/04/16 11:57:50;;;;;;;8.50;5.60;;;;;;;15.53;71.25;100722.60;675901;1261;138963;-83
2023/04/16 12:40:37;;;;;;;27.90;13.90;;;;;;;15.45;72.33;100735.20;654896;1308;544979;-89
2023/04/16 12:55:41;;;;;;;17.20;11.60;;;;;;;15.53;72.23;100732.48;670280;1275;139109;-90
2023/04/16 13:10:44;;;;;;;19.70;10.20;;;;;;;15.25;72.22;100739.17;668495;1273;139515;-90
2023/04/16 13:25:47;;;;;;;28.00;14.40;;;;;;;14.91;73.16;100747.59;668036;1275;139302;-88
2023/04/16 13:40:52;;;;;;;14.20;8.20;;;;;;;14.44;74.93;100747.07;667503;1272;139921;-89
2023/04/16 13:55:56;;;;;;;19.70;12.10;;;;;;;14.55;74.29;100760.95;667823;1278;140885;-88
2023/04/16 14:11:00;;;;;;;19.40;11.60;;;;;;;14.31;74.68;100767.31;668310;1273;138727;-90
2023/04/16 14:26:03;;;;;;;17.70;11.20;;;;;;;14.36;74.62;100769.98;668084;1272;141612;-90
2023/04/16 14:41:06;;;;;;;31.80;15.90;;;;;;;14.29;75.26;100778.93;666503;1272;141178;-91
2023/04/16 14:56:11;;;;;;;28.80;17.50;;;;;;;14.03;75.66;100779.80;669817;1275;139302;-89
2023/04/16 15:11:15;;;;;;;115.30;61.90;;;;;;;13.83;76.52;100778.88;673448;1261;139527;-90
2023/04/16 15:26:18;;;;;;;85.80;41.40;;;;;;;13.88;76.68;100791.89;674700;1259;139712;-90
2023/04/16 15:41:22;;;;;;;53.80;34.50;;;;;;;13.62;77.54;100803.14;677485;1262;140080;-93
2023/04/16 15:56:25;;;;;;;57.40;28.00;;;;;;;13.65;77.38;100809.00;673975;1263;139151;-95
2023/04/16 16:11:28;;;;;;;260.30;113.20;;;;;;;13.54;78.37;100817.62;674681;1257;139365;-92
2023/04/16 16:26:31;;;;;;;63.50;34.30;;;;;;;13.60;78.32;100824.59;674660;1263;139665;-92
2023/04/16 16:41:40;;;;;;;48.10;24.80;;;;;;;13.53;78.56;100837.20;675954;1260;138964;-87
2023/04/16 16:56:43;;;;;;;41.30;22.70;;;;;;;13.40;79.44;100851.34;672855;1262;140562;-89
2023/04/16 17:11:47;;;;;;;46.20;25.30;;;;;;;13.20;80.13;100855.02;673938;1263;139419;-92
2023/04/16 17:26:50;;;;;;;62.60;33.00;;;;;;;13.11;80.77;100858.78;676782;1262;138872;-91
2023/04/16 17:41:57;;;;;;;65.40;36.90;;;;;;;13.07;81.34;100871.48;673116;1263;139349;-91
2023/04/16 17:57:01;;;;;;;107.40;46.40;;;;;;;13.08;81.62;100884.19;670979;1262;139220;-91
2023/04/16 18:12:05;;;;;;;36.90;23.30;;;;;;;13.04;82.10;100891.94;672452;1263;140283;-93
2023/04/16 18:27:09;;;;;;;67.10;34.70;;;;;;;12.99;82.17;100903.78;672653;1265;139258;-92
2023/04/16 18:42:16;;;;;;;79.10;34.60;;;;;;;13.08;82.06;100915.27;671697;1264;139440;-93
2023/04/16 18:57:19;;;;;;;101.80;42.60;;;;;;;13.09;81.62;100920.31;670800;1267;138577;-92
2023/04/16 19:12:23;;;;;;;89.80;40.30;;;;;;;13.07;81.63;100929.07;671808;1276;138951;-89
2023/04/16 19:27:28;;;;;;;51.40;26.70;;;;;;;12.99;81.76;100928.42;672999;1262;139373;-92
2023/04/16 19:42:32;;;;;;;67.30;30.90;;;;;;;12.95;81.76;100931.52;675375;1271;139120;-91
2023/04/16 19:57:35;;;;;;;35.80;19.40;;;;;;;12.85;81.99;100924.02;677426;1260;139440;-91
2023/04/16 20:12:38;;;;;;;35.00;18.70;;;;;;;12.63;83.09;100922.36;675169;1263;139452;-90
2023/04/16 20:27:41;;;;;;;28.70;15.00;;;;;;;12.66;82.62;100923.05;672536;1263;139986;-92
2023/04/16 20:42:45;;;;;;;50.00;24.40;;;;;;;12.72;82.45;100935.30;672854;1264;139006;-90
2023/04/16 20:57:48;;;;;;;31.00;15.10;;;;;;;12.66;83.08;100950.77;673841;1263;139001;-85
2023/04/16 21:12:52;;;;;;;24.10;13.50;;;;;;;12.63;83.56;100951.02;673331;1267;138308;-91
2023/04/16 21:27:55;;;;;;;28.40;14.30;;;;;;;12.77;82.82;100954.98;674624;1261;139482;-85
2023/04/16 21:42:58;;;;;;;31.10;16.50;;;;;;;12.77;82.85;100957.19;675097;1258;141945;-90
2023/04/16 21:58:02;;;;;;;26.20;15.70;;;;;;;12.73;83.05;100963.06;675695;1257;138836;-92
2023/04/16 22:13:11;;;;;;;27.20;15.60;;;;;;;12.68;83.06;100960.91;675242;1262;138675;-91
2023/04/16 22:28:14;;;;;;;25.80;13.80;;;;;;;12.71;82.85;100962.75;676808;1264;139143;-91
2023/04/16 22:43:17;;;;;;;16.00;10.60;;;;;;;12.71;82.55;100965.02;677332;1262;138612;-91
2023/04/16 22:58:21;;;;;;;18.40;11.20;;;;;;;12.70;82.36;100965.88;674052;1263;139272;-90
2023/04/16 23:13:24;;;;;;;22.00;12.00;;;;;;;12.67;82.17;100972.96;673569;1263;139703;-91
2023/04/16 23:28:27;;;;;;;16.40;9.40;;;;;;;12.71;81.85;100975.20;672677;1263;139406;-87
2023/04/16 23:43:30;;;;;;;16.70;9.60;;;;;;;12.68;81.85;100981.48;672742;1264;137891;-90
2023/04/16 23:58:33;;;;;;;15.70;9.30;;;;;;;12.61;81.78;100982.57;671589;1258;138441;-89
